Time;durP1;ratioP1;P1;durP2;ratioP2;P2;SDS_P1;SDS_P2;PMS_P1;PMS_P2;Temp;Humidity;BMP_temperature;BMP_pressure;BME280_temperature;BME280_humidity;BME280_pressure;Samples;Min_cycle;Max_cycle;Signal;HPM_P1;HPM_P2
2022/10/06 00:00:44;;;;;;;5.65;2.65;;;;;;;;;;5029590;28;20065;-74
2022/10/06 00:03:25;;;;;;;10.02;2.00;;;;;;;;;;5039646;28;20073;-74
2022/10/06 00:06:20;;;;;;;8.70;1.60;;;;;;;;;;5055608;28;20054;-73
2022/10/06 00:08:54;;;;;;;8.38;3.72;;;;;;;;;;5024279;28;20215;-74
2022/10/06 00:11:34;;;;;;;6.85;1.60;;;;;;;;;;5057482;28;20543;-74
2022/10/06 00:14:03;;;;;;;9.55;2.22;;;;;;;;;;5045047;28;20643;-73
2022/10/06 00:16:33;;;;;;;11.38;2.22;;;;;;;;;;5062773;28;20136;-74
2022/10/06 00:19:07;;;;;;;16.60;3.38;;;;;;;;;;5028694;28;20056;-73
2022/10/06 00:21:37;;;;;;;9.82;2.47;;;;;;;;;;5059324;28;20517;-74
2022/10/06 00:24:11;;;;;;;9.75;1.92;;;;;;;;;;5058461;28;20151;-74
2022/10/06 00:26:46;;;;;;;14.55;2.97;;;;;;;;;;5060459;28;20094;-73
2022/10/06 00:29:18;;;;;;;8.90;2.35;;;;;;;;;;5081348;27;20067;-73
2022/10/06 00:31:47;;;;;;;11.35;3.13;;;;;;;;;;5052625;28;20048;-74
2022/10/06 00:34:19;;;;;;;10.30;2.20;;;;;;;;;;5077827;28;20052;-74
2022/10/06 00:36:47;;;;;;;;;;;;;;;;;;5067066;28;20058;-73
2022/10/06 00:39:34;;;;;;;12.55;2.13;;;;;;;;;;5078776;28;20019;-74
2022/10/06 00:42:05;;;;;;;4.80;2.20;;;;;;;;;;5059156;28;20094;-73
2022/10/06 00:44:34;;;;;;;9.15;2.15;;;;;;;;;;5071693;28;20531;-74
2022/10/06 00:47:05;;;;;;;5.38;2.15;;;;;;;;;;5053475;28;20613;-73
2022/10/06 00:49:38;;;;;;;6.05;2.13;;;;;;;;;;5065565;28;20049;-73
2022/10/06 00:52:38;;;;;;;7.20;2.95;;;;;;;;;;5049953;28;20099;-74
2022/10/06 00:55:19;;;;;;;7.50;2.40;;;;;;;;;;5047723;28;20048;-74
2022/10/06 00:58:07;;;;;;;14.05;2.30;;;;;;;;;;5051129;28;20053;-73
2022/10/06 01:00:46;;;;;;;10.57;2.65;;;;;;;;;;5057514;28;20150;-74
2022/10/06 01:03:17;;;;;;;8.40;2.42;;;;;;;;;;5064367;28;20053;-73
2022/10/06 01:05:48;;;;;;;7.50;2.55;;;;;;;;;;5050826;28;20049;-74
2022/10/06 01:08:20;;;;;;;9.52;3.10;;;;;;;;;;5048926;28;20049;-74
2022/10/06 01:11:13;;;;;;;12.27;3.17;;;;;;;;;;5049789;28;20578;-74
2022/10/06 01:13:54;;;;;;;12.55;3.83;;;;;;;;;;5066757;28;21027;-73
2022/10/06 01:16:25;;;;;;;15.85;3.45;;;;;;;;;;5049242;28;20561;-73
2022/10/06 01:19:02;;;;;;;5.35;2.53;;;;;;;;;;5050430;28;20064;-73
2022/10/06 01:21:47;;;;;;;7.53;2.60;;;;;;;;;;5057326;28;20197;-74
2022/10/06 01:24:31;;;;;;;9.20;2.65;;;;;;;;;;5055114;28;20040;-73
2022/10/06 01:27:09;;;;;;;8.63;2.25;;;;;;;;;;5065507;28;20081;-73
2022/10/06 01:29:45;;;;;;;8.55;2.95;;;;;;;;;;5067308;28;20904;-73
2022/10/06 01:32:41;;;;;;;8.48;2.58;;;;;;;;;;5070406;28;20047;-74
2022/10/06 01:35:23;;;;;;;10.98;2.70;;;;;;;;;;5057683;28;20088;-73
2022/10/06 01:37:53;;;;;;;;;;;;;;;;;;5063787;28;20048;-73
2022/10/06 01:40:24;;;;;;;7.85;2.38;;;;;;;;;;5079783;28;20014;-72
2022/10/06 01:43:08;;;;;;;5.28;2.00;;;;;;;;;;5064002;28;20162;-73
2022/10/06 01:45:42;;;;;;;15.25;1.88;;;;;;;;;;5078762;28;20110;-74
2022/10/06 01:48:30;;;;;;;8.52;2.20;;;;;;;;;;5073723;28;20045;-73
2022/10/06 01:51:01;;;;;;;18.45;3.22;;;;;;;;;;5070831;28;20057;-73
2022/10/06 01:53:30;;;;;;;4.72;1.67;;;;;;;;;;5055257;28;20072;-75
2022/10/06 01:56:17;;;;;;;10.48;3.60;;;;;;;;;;5056321;28;20037;-73
2022/10/06 01:58:50;;;;;;;8.88;2.05;;;;;;;;;;5051987;28;20076;-73
2022/10/06 02:01:35;;;;;;;12.63;2.58;;;;;;;;;;5054726;28;20048;-73
2022/10/06 02:04:14;;;;;;;7.80;2.00;;;;;;;;;;5053741;28;20102;-73
2022/10/06 02:06:49;;;;;;;11.50;2.05;;;;;;;;;;5055088;28;20041;-73
2022/10/06 02:09:18;;;;;;;13.02;2.13;;;;;;;;;;5054228;28;20037;-73
2022/10/06 02:11:53;;;;;;;12.38;2.20;;;;;;;;;;5070723;28;20449;-73
2022/10/06 02:14:25;;;;;;;10.52;1.75;;;;;;;;;;5055382;28;20049;-74
2022/10/06 02:17:02;;;;;;;7.60;2.42;;;;;;;;;;5069725;28;20061;-74
2022/10/06 02:19:41;;;;;;;11.75;4.25;;;;;;;;;;5093889;27;20089;-72
2022/10/06 02:22:15;;;;;;;8.13;2.17;;;;;;;;;;5094338;28;20993;-73
2022/10/06 02:24:47;;;;;;;11.57;2.25;;;;;;;;;;5077624;28;20614;-73
2022/10/06 02:27:44;;;;;;;;;;;;;;;;;;;;;
2022/10/06 02:30:16;;;;;;;7.15;2.00;;;;;;;;;;5080578;28;40015;-74
2022/10/06 02:32:45;;;;;;;12.20;3.15;;;;;;;;;;5075797;28;20834;-74
2022/10/06 02:35:22;;;;;;;9.05;2.30;;;;;;;;;;5070014;27;20570;-73
2022/10/06 02:37:51;;;;;;;8.65;2.05;;;;;;;;;;5092667;27;20039;-73
2022/10/06 02:40:29;;;;;;;12.77;2.08;;;;;;;;;;5093969;27;20211;-74
2022/10/06 02:43:04;;;;;;;14.10;2.03;;;;;;;;;;5074421;27;20048;-73
2022/10/06 02:45:47;;;;;;;10.68;3.08;;;;;;;;;;5070544;28;20033;-74
2022/10/06 02:48:20;;;;;;;5.68;1.92;;;;;;;;;;5055984;28;20166;-73
2022/10/06 02:50:58;;;;;;;7.97;2.83;;;;;;;;;;5054866;28;20543;-73
2022/10/06 02:53:27;;;;;;;7.78;1.88;;;;;;;;;;5054926;28;20064;-74
2022/10/06 02:56:08;;;;;;;12.32;2.88;;;;;;;;;;5048000;28;20037;-73
2022/10/06 03:02:06;;;;;;;5.05;1.58;;;;;;;;;;5056046;28;20103;-73
2022/10/06 03:04:58;;;;;;;9.60;2.78;;;;;;;;;;5064007;28;20051;-74
2022/10/06 03:07:41;;;;;;;8.77;1.90;;;;;;;;;;5072139;28;20069;-74
2022/10/06 03:10:33;;;;;;;10.30;2.97;;;;;;;;;;5056806;28;20099;-73
2022/10/06 03:13:13;;;;;;;;;;;;;;;;;;;;;
2022/10/06 03:16:04;;;;;;;10.90;2.97;;;;;;;;;;5056343;28;44819;-73
2022/10/06 03:18:52;;;;;;;;;;;;;;;;;;;;;
2022/10/06 03:21:30;;;;;;;10.98;2.78;;;;;;;;;;5056231;28;38963;-74
2022/10/06 03:24:00;;;;;;;9.88;2.72;;;;;;;;;;5065922;28;20049;-73
2022/10/06 03:26:36;;;;;;;17.73;2.22;;;;;;;;;;5055103;28;20049;-74
2022/10/06 03:29:18;;;;;;;11.68;2.38;;;;;;;;;;5074960;28;20036;-73
2022/10/06 03:32:10;;;;;;;8.85;3.17;;;;;;;;;;5057670;28;20041;-73
2022/10/06 03:34:36;;;;;;;;;;;;;;;;;;5054953;28;20061;-73
2022/10/06 03:37:05;;;;;;;14.15;2.00;;;;;;;;;;5057120;28;20334;-74
2022/10/06 03:39:44;;;;;;;7.93;3.15;;;;;;;;;;5055867;28;20068;-73
2022/10/06 03:42:13;;;;;;;7.60;2.38;;;;;;;;;;5055351;28;20487;-74
2022/10/06 03:44:48;;;;;;;6.88;2.05;;;;;;;;;;5070621;28;20056;-74
2022/10/06 03:47:20;;;;;;;7.50;2.63;;;;;;;;;;5070989;28;20045;-74
2022/10/06 03:49:49;;;;;;;10.60;2.40;;;;;;;;;;5072409;28;20518;-74
2022/10/06 03:52:39;;;;;;;14.55;2.55;;;;;;;;;;5069036;28;20513;-74
2022/10/06 03:55:19;;;;;;;9.27;2.72;;;;;;;;;;5071644;28;20047;-74
2022/10/06 03:57:48;;;;;;;10.38;2.70;;;;;;;;;;5073469;28;20059;-72
2022/10/06 04:00:34;;;;;;;10.75;1.95;;;;;;;;;;5074077;28;20059;-75
2022/10/06 04:03:23;;;;;;;11.05;3.22;;;;;;;;;;5054308;28;20049;-74
2022/10/06 04:06:16;;;;;;;10.98;2.88;;;;;;;;;;5051737;28;20061;-74
2022/10/06 04:08:59;;;;;;;;;;;;;;;;;;;;;
2022/10/06 04:11:43;;;;;;;10.93;2.47;;;;;;;;;;5052254;28;43053;-73
2022/10/06 04:14:16;;;;;;;10.98;2.83;;;;;;;;;;5053140;28;20053;-74
2022/10/06 04:17:00;;;;;;;;;;;;;;;;;;;;;
2022/10/06 04:19:30;;;;;;;10.50;2.20;;;;;;;;;;5052550;28;42558;-73
2022/10/06 04:22:04;;;;;;;12.43;2.78;;;;;;;;;;5045810;28;20053;-73
2022/10/06 04:24:34;;;;;;;12.20;3.60;;;;;;;;;;5028511;28;20060;-73
2022/10/06 04:29:50;;;;;;;10.27;2.10;;;;;;;;;;5054166;28;20579;-74
2022/10/06 04:32:39;;;;;;;9.52;2.03;;;;;;;;;;5050164;28;20065;-74
2022/10/06 04:35:11;;;;;;;9.05;2.03;;;;;;;;;;5053446;28;20115;-74
2022/10/06 04:37:57;;;;;;;9.45;2.08;;;;;;;;;;5047040;28;21083;-73
2022/10/06 04:40:37;;;;;;;8.90;2.10;;;;;;;;;;5043796;28;20053;-74
2022/10/06 04:43:13;;;;;;;5.90;2.03;;;;;;;;;;5055080;28;20045;-74
2022/10/06 04:45:56;;;;;;;9.20;1.88;;;;;;;;;;5071751;28;20045;-73
2022/10/06 04:48:54;;;;;;;10.30;3.13;;;;;;;;;;5052538;28;20045;-74
2022/10/06 04:51:29;;;;;;;13.15;3.08;;;;;;;;;;5053015;28;20049;-74
2022/10/06 04:54:17;;;;;;;;;;;;;;;;;;;;;
2022/10/06 04:56:56;;;;;;;13.75;4.43;;;;;;;;;;5054322;28;40084;-73
2022/10/06 05:02:26;;;;;;;11.43;2.60;;;;;;;;;;5053357;28;20049;-79
2022/10/06 05:04:58;;;;;;;12.27;2.58;;;;;;;;;;5070211;28;20125;-75
2022/10/06 05:07:43;;;;;;;36.75;5.35;;;;;;;;;;5086395;27;20049;-76
2022/10/06 05:10:12;;;;;;;14.65;2.70;;;;;;;;;;5074686;28;20041;-72
2022/10/06 05:12:41;;;;;;;10.85;3.33;;;;;;;;;;5063773;28;20053;-72
2022/10/06 05:15:18;;;;;;;8.35;2.88;;;;;;;;;;5067247;28;20446;-72
2022/10/06 05:17:46;;;;;;;12.63;2.80;;;;;;;;;;5059190;28;20401;-71
2022/10/06 05:20:12;;;;;;;16.17;3.88;;;;;;;;;;5056949;28;20037;-72
2022/10/06 05:22:38;;;;;;;9.85;3.15;;;;;;;;;;5071981;28;20037;-72
2022/10/06 05:25:05;;;;;;;6.80;2.78;;;;;;;;;;5075095;28;20450;-72
2022/10/06 05:27:31;;;;;;;15.07;3.10;;;;;;;;;;5074162;28;20071;-72
2022/10/06 05:29:57;;;;;;;11.65;4.43;;;;;;;;;;5059646;28;20152;-72
2022/10/06 05:32:23;;;;;;;12.25;4.15;;;;;;;;;;5066267;28;20037;-72
2022/10/06 05:34:49;;;;;;;12.93;2.97;;;;;;;;;;5056307;28;20087;-71
2022/10/06 05:37:33;;;;;;;10.73;2.67;;;;;;;;;;5059508;28;20037;-74
2022/10/06 05:39:59;;;;;;;13.55;3.42;;;;;;;;;;5074726;28;20041;-70
2022/10/06 05:42:25;;;;;;;14.63;3.22;;;;;;;;;;5075636;28;20045;-70
2022/10/06 05:44:51;;;;;;;12.90;2.05;;;;;;;;;;5058856;28;20033;-70
2022/10/06 05:47:17;;;;;;;13.20;3.55;;;;;;;;;;5059230;28;20051;-70
2022/10/06 05:49:43;;;;;;;7.97;3.25;;;;;;;;;;5058698;28;20049;-71
2022/10/06 05:52:09;;;;;;;9.30;2.42;;;;;;;;;;5056487;28;20728;-71
2022/10/06 05:54:35;;;;;;;6.57;2.65;;;;;;;;;;5059610;28;20095;-70
2022/10/06 05:57:02;;;;;;;10.65;2.65;;;;;;;;;;5071878;28;20048;-70
2022/10/06 05:59:28;;;;;;;9.70;3.63;;;;;;;;;;5057009;28;20041;-71
2022/10/06 06:01:54;;;;;;;7.72;2.45;;;;;;;;;;5054502;28;20041;-71
2022/10/06 06:04:20;;;;;;;10.68;3.70;;;;;;;;;;5066981;28;20033;-72
2022/10/06 06:06:47;;;;;;;12.48;3.78;;;;;;;;;;5069871;28;20804;-70
2022/10/06 06:09:13;;;;;;;14.88;3.85;;;;;;;;;;5073578;28;20605;-70
2022/10/06 06:11:41;;;;;;;14.10;3.85;;;;;;;;;;5068933;28;20042;-70
2022/10/06 06:14:09;;;;;;;9.38;2.42;;;;;;;;;;5055067;28;20653;-70
2022/10/06 06:16:37;;;;;;;18.20;4.30;;;;;;;;;;5071366;28;20148;-70
2022/10/06 06:19:03;;;;;;;16.40;3.25;;;;;;;;;;5054377;28;20167;-70
2022/10/06 06:21:29;;;;;;;16.48;4.43;;;;;;;;;;5069981;28;21155;-70
2022/10/06 06:23:56;;;;;;;13.88;3.03;;;;;;;;;;5065105;28;20049;-70
2022/10/06 06:26:29;;;;;;;8.88;2.20;;;;;;;;;;5071839;28;20483;-70
2022/10/06 06:29:02;;;;;;;14.43;3.83;;;;;;;;;;5056170;28;21922;-70
2022/10/06 06:31:33;;;;;;;10.38;2.97;;;;;;;;;;5071372;28;20059;-70
2022/10/06 06:34:01;;;;;;;12.60;3.25;;;;;;;;;;5053997;28;20099;-70
2022/10/06 06:36:34;;;;;;;12.27;2.65;;;;;;;;;;5054774;28;20523;-70
2022/10/06 06:39:01;;;;;;;7.25;2.40;;;;;;;;;;5055715;28;20033;-70
2022/10/06 06:41:31;;;;;;;9.48;2.50;;;;;;;;;;5052384;28;20128;-70
2022/10/06 06:44:00;;;;;;;7.53;2.08;;;;;;;;;;5054903;28;20049;-70
2022/10/06 06:46:30;;;;;;;8.88;2.97;;;;;;;;;;5054327;28;20450;-70
2022/10/06 06:49:00;;;;;;;11.32;2.60;;;;;;;;;;5055608;28;20044;-70
2022/10/06 06:51:27;;;;;;;14.35;4.03;;;;;;;;;;5056395;28;20041;-70
2022/10/06 06:53:53;;;;;;;6.72;3.17;;;;;;;;;;5056535;28;20077;-70
2022/10/06 06:56:22;;;;;;;12.13;3.17;;;;;;;;;;5057350;28;20056;-70
2022/10/06 06:58:49;;;;;;;19.42;3.90;;;;;;;;;;5071921;28;20076;-69
2022/10/06 07:01:16;;;;;;;12.30;5.60;;;;;;;;;;5057453;28;21218;-69
2022/10/06 07:03:47;;;;;;;10.10;3.80;;;;;;;;;;5073914;28;20132;-69
2022/10/06 07:06:15;;;;;;;9.68;4.07;;;;;;;;;;5056897;28;20071;-70
2022/10/06 07:08:42;;;;;;;14.63;4.25;;;;;;;;;;5057402;28;20047;-69
2022/10/06 07:11:22;;;;;;;10.27;3.35;;;;;;;;;;5057320;28;20036;-70
2022/10/06 07:14:05;;;;;;;14.63;3.83;;;;;;;;;;5063172;28;20041;-71
2022/10/06 07:27:36;;;;;;;17.35;4.30;;;;;;;;;;5056469;28;20090;-70
2022/10/06 07:30:06;;;;;;;10.43;3.00;;;;;;;;;;5072534;28;20056;-70
2022/10/06 07:32:32;;;;;;;16.58;2.75;;;;;;;;;;5072235;28;20110;-70
2022/10/06 07:34:59;;;;;;;12.82;3.22;;;;;;;;;;5072466;28;20104;-70
2022/10/06 07:37:25;;;;;;;6.63;2.03;;;;;;;;;;5056815;28;20048;-70
2022/10/06 07:39:51;;;;;;;7.40;2.65;;;;;;;;;;5057398;28;20044;-70
2022/10/06 07:42:17;;;;;;;12.77;3.30;;;;;;;;;;5073162;28;20064;-70
2022/10/06 07:45:37;;;;;;;11.35;2.45;;;;;;;;;;5073206;28;20044;-73
2022/10/06 07:47:33;;;;;;;7.97;3.65;;;;;;;;;;5056382;28;20049;-70
2022/10/06 07:49:59;;;;;;;12.98;4.75;;;;;;;;;;5071303;28;20043;-70
2022/10/06 07:52:27;;;;;;;8.65;2.97;;;;;;;;;;5072679;28;20549;-70
2022/10/06 07:54:54;;;;;;;11.93;3.53;;;;;;;;;;5056663;28;20167;-70
2022/10/06 07:57:20;;;;;;;10.20;3.28;;;;;;;;;;5056418;28;21006;-70
2022/10/06 07:59:46;;;;;;;25.42;4.28;;;;;;;;;;5072064;28;20071;-70
2022/10/06 08:02:13;;;;;;;12.73;2.75;;;;;;;;;;5056492;28;20040;-70
2022/10/06 08:04:39;;;;;;;8.77;2.50;;;;;;;;;;5056085;28;20041;-70
2022/10/06 08:07:09;;;;;;;22.75;5.38;;;;;;;;;;5056045;28;20037;-70
2022/10/06 08:09:36;;;;;;;9.23;2.08;;;;;;;;;;5072046;28;20114;-71
2022/10/06 08:12:31;;;;;;;13.48;3.13;;;;;;;;;;5064536;28;20056;-70
2022/10/06 08:14:48;;;;;;;15.50;3.22;;;;;;;;;;5057054;28;20129;-70
2022/10/06 08:17:15;;;;;;;9.68;3.33;;;;;;;;;;5070498;28;20036;-69
2022/10/06 08:19:41;;;;;;;10.82;3.10;;;;;;;;;;5070866;28;20124;-70
2022/10/06 08:22:09;;;;;;;16.48;3.15;;;;;;;;;;5056717;28;20045;-70
2022/10/06 08:24:35;;;;;;;16.80;2.88;;;;;;;;;;5072454;28;20037;-70
2022/10/06 08:27:01;;;;;;;11.95;2.85;;;;;;;;;;5071010;28;20119;-70
2022/10/06 08:29:27;;;;;;;12.85;2.58;;;;;;;;;;5071917;28;20037;-70
2022/10/06 08:31:54;;;;;;;11.45;3.20;;;;;;;;;;5056960;28;20041;-70
2022/10/06 08:34:20;;;;;;;12.40;3.63;;;;;;;;;;5071233;28;20092;-70
2022/10/06 08:36:46;;;;;;;13.32;4.88;;;;;;;;;;5072665;28;20116;-70
2022/10/06 08:39:12;;;;;;;13.27;3.80;;;;;;;;;;5071189;28;20503;-71
2022/10/06 08:41:43;;;;;;;12.15;3.45;;;;;;;;;;5055390;28;20037;-70
2022/10/06 08:44:18;;;;;;;13.63;4.45;;;;;;;;;;5055979;28;20515;-70
2022/10/06 08:46:50;;;;;;;11.32;3.65;;;;;;;;;;5071508;28;20095;-70
2022/10/06 08:49:18;;;;;;;16.13;3.63;;;;;;;;;;5071996;28;20065;-70
2022/10/06 08:51:50;;;;;;;17.40;3.97;;;;;;;;;;5071686;28;20041;-71
2022/10/06 08:54:28;;;;;;;12.18;3.05;;;;;;;;;;5072133;28;20045;-70
2022/10/06 08:57:04;;;;;;;14.15;2.85;;;;;;;;;;5056204;28;20133;-71
2022/10/06 08:59:34;;;;;;;14.73;2.92;;;;;;;;;;5055963;28;20041;-70
2022/10/06 09:02:05;;;;;;;12.95;4.15;;;;;;;;;;5071929;28;20107;-70
2022/10/06 09:04:33;;;;;;;15.15;3.42;;;;;;;;;;5071096;28;20136;-70
2022/10/06 09:07:03;;;;;;;12.30;4.28;;;;;;;;;;5057398;28;20189;-70
2022/10/06 09:09:33;;;;;;;9.88;2.92;;;;;;;;;;5069225;28;20083;-70
2022/10/06 09:12:02;;;;;;;14.25;4.30;;;;;;;;;;5055306;28;20084;-71
2022/10/06 09:14:37;;;;;;;12.07;3.28;;;;;;;;;;5070377;28;20043;-70
2022/10/06 09:17:07;;;;;;;17.80;2.55;;;;;;;;;;5056730;28;20106;-70
2022/10/06 09:19:53;;;;;;;13.82;3.08;;;;;;;;;;5055676;28;20045;-71
2022/10/06 09:22:20;;;;;;;15.90;3.63;;;;;;;;;;5070299;28;20049;-72
2022/10/06 09:24:50;;;;;;;10.85;4.40;;;;;;;;;;5070549;28;20049;-70
2022/10/06 09:27:35;;;;;;;14.52;3.15;;;;;;;;;;5070149;28;20044;-70
2022/10/06 09:30:03;;;;;;;16.98;4.20;;;;;;;;;;5070358;28;20578;-70
2022/10/06 09:32:30;;;;;;;21.52;3.08;;;;;;;;;;5071332;28;20047;-70
2022/10/06 09:35:01;;;;;;;11.43;3.17;;;;;;;;;;5054566;28;20124;-70
2022/10/06 09:37:27;;;;;;;11.27;3.80;;;;;;;;;;5054499;28;20128;-70
2022/10/06 09:39:54;;;;;;;16.15;2.85;;;;;;;;;;5072119;28;20037;-70
2022/10/06 09:42:34;;;;;;;14.45;2.70;;;;;;;;;;5069980;28;20160;-72
2022/10/06 09:45:23;;;;;;;9.80;3.17;;;;;;;;;;5054379;28;20095;-70
2022/10/06 09:47:49;;;;;;;16.23;2.30;;;;;;;;;;5054544;28;20120;-70
2022/10/06 09:50:16;;;;;;;18.50;4.55;;;;;;;;;;5055472;28;20099;-71
2022/10/06 09:52:43;;;;;;;16.80;4.40;;;;;;;;;;5074537;28;20041;-70
2022/10/06 09:55:11;;;;;;;10.85;5.15;;;;;;;;;;5056983;28;20050;-70
2022/10/06 09:57:37;;;;;;;12.20;3.03;;;;;;;;;;5073510;28;20033;-70
2022/10/06 10:00:04;;;;;;;7.88;2.25;;;;;;;;;;5057765;28;20191;-70
2022/10/06 10:02:38;;;;;;;21.42;4.03;;;;;;;;;;5072105;28;21178;-70
2022/10/06 10:05:06;;;;;;;7.70;2.40;;;;;;;;;;5074693;28;20044;-70
2022/10/06 10:07:34;;;;;;;11.15;3.40;;;;;;;;;;5050505;28;20041;-70
2022/10/06 10:10:34;;;;;;;9.15;2.88;;;;;;;;;;5074456;28;20049;-70
2022/10/06 10:13:00;;;;;;;8.70;2.83;;;;;;;;;;5044656;28;20053;-70
2022/10/06 10:15:29;;;;;;;11.35;2.75;;;;;;;;;;5074675;28;20056;-70
2022/10/06 10:17:57;;;;;;;6.35;2.22;;;;;;;;;;5058728;28;20112;-70
2022/10/06 10:20:24;;;;;;;11.70;1.83;;;;;;;;;;5057720;28;20476;-70
2022/10/06 10:22:50;;;;;;;10.60;2.80;;;;;;;;;;5057809;28;20041;-70
2022/10/06 10:25:25;;;;;;;10.50;3.20;;;;;;;;;;5058585;28;20320;-70
2022/10/06 10:27:54;;;;;;;11.40;2.40;;;;;;;;;;5073231;28;20144;-69
2022/10/06 10:30:22;;;;;;;10.07;2.53;;;;;;;;;;5058598;28;20103;-70
2022/10/06 10:32:48;;;;;;;9.98;2.83;;;;;;;;;;5058348;28;20570;-70
2022/10/06 10:35:19;;;;;;;7.60;2.72;;;;;;;;;;5074158;28;20048;-70
2022/10/06 10:37:51;;;;;;;16.55;2.50;;;;;;;;;;5074196;28;20048;-70
2022/10/06 10:40:25;;;;;;;13.82;3.60;;;;;;;;;;5057843;28;20045;-70
2022/10/06 10:42:54;;;;;;;10.63;2.75;;;;;;;;;;5073143;28;20053;-70
2022/10/06 10:45:25;;;;;;;5.60;2.20;;;;;;;;;;5057231;28;20089;-71
2022/10/06 10:47:52;;;;;;;11.02;3.75;;;;;;;;;;5073854;28;20973;-70
2022/10/06 10:50:26;;;;;;;14.20;2.75;;;;;;;;;;5074421;28;20087;-71
2022/10/06 10:52:55;;;;;;;9.98;2.20;;;;;;;;;;5073400;28;20049;-70
2022/10/06 10:55:25;;;;;;;15.93;3.60;;;;;;;;;;5055161;28;20749;-70
2022/10/06 10:57:53;;;;;;;5.55;2.17;;;;;;;;;;5056123;28;20048;-70
2022/10/06 11:00:21;;;;;;;13.65;2.83;;;;;;;;;;5073122;28;20099;-70
2022/10/06 11:02:49;;;;;;;9.20;2.33;;;;;;;;;;5055109;28;20451;-71
2022/10/06 11:05:20;;;;;;;12.85;2.00;;;;;;;;;;5073177;28;20037;-70
2022/10/06 11:07:52;;;;;;;9.70;3.60;;;;;;;;;;5057764;28;20043;-70
2022/10/06 11:10:30;;;;;;;8.23;2.50;;;;;;;;;;5056510;28;21520;-71
2022/10/06 11:12:56;;;;;;;7.32;2.00;;;;;;;;;;5058095;28;20041;-70
2022/10/06 11:15:49;;;;;;;6.45;1.65;;;;;;;;;;5057322;28;20052;-70
2022/10/06 11:18:15;;;;;;;;;;;;;;;;;;5036867;28;20048;-70
2022/10/06 11:20:42;;;;;;;12.10;3.22;;;;;;;;;;5072497;28;19970;-70
2022/10/06 11:23:27;;;;;;;9.75;2.80;;;;;;;;;;5057551;28;20052;-70
2022/10/06 11:26:15;;;;;;;10.95;2.58;;;;;;;;;;5055455;28;20056;-70
2022/10/06 11:28:48;;;;;;;6.55;2.30;;;;;;;;;;5073895;28;20041;-70
2022/10/06 11:31:33;;;;;;;8.43;2.55;;;;;;;;;;5056504;28;20060;-70
2022/10/06 11:34:00;;;;;;;7.68;1.85;;;;;;;;;;5072445;28;20060;-70
2022/10/06 11:36:30;;;;;;;9.18;2.17;;;;;;;;;;5071625;28;20558;-70
2022/10/06 11:39:01;;;;;;;7.50;3.25;;;;;;;;;;5056645;28;21012;-71
2022/10/06 11:41:30;;;;;;;11.32;2.35;;;;;;;;;;5071169;28;20043;-69
2022/10/06 11:44:04;;;;;;;6.43;1.90;;;;;;;;;;5056287;28;20052;-70
2022/10/06 11:46:38;;;;;;;6.50;2.58;;;;;;;;;;5057372;28;20173;-70
2022/10/06 11:49:43;;;;;;;23.60;3.58;;;;;;;;;;5073208;28;20099;-70
2022/10/06 11:52:09;;;;;;;7.13;2.22;;;;;;;;;;5016996;28;20065;-70
2022/10/06 11:54:45;;;;;;;8.20;1.67;;;;;;;;;;5032438;28;20069;-70
2022/10/06 11:57:26;;;;;;;5.85;1.80;;;;;;;;;;5041674;28;20060;-70
2022/10/06 11:59:55;;;;;;;16.15;2.70;;;;;;;;;;5055305;28;20049;-70
2022/10/06 12:02:34;;;;;;;9.30;1.98;;;;;;;;;;5072829;28;20523;-71
2022/10/06 12:05:09;;;;;;;5.30;1.80;;;;;;;;;;5056650;28;20045;-70
2022/10/06 12:07:54;;;;;;;6.68;2.00;;;;;;;;;;5049445;28;20522;-70
2022/10/06 12:10:31;;;;;;;11.50;2.88;;;;;;;;;;5073559;28;20041;-70
2022/10/06 12:13:15;;;;;;;5.78;1.58;;;;;;;;;;5056702;28;20045;-70
2022/10/06 12:15:45;;;;;;;10.38;2.05;;;;;;;;;;5055392;28;20045;-69
2022/10/06 12:18:23;;;;;;;6.35;2.22;;;;;;;;;;5057432;28;20099;-70
2022/10/06 12:20:50;;;;;;;10.43;1.98;;;;;;;;;;5071325;28;20103;-70
2022/10/06 12:23:28;;;;;;;5.05;2.13;;;;;;;;;;5074177;28;20664;-70
2022/10/06 12:25:54;;;;;;;5.28;1.50;;;;;;;;;;5071749;28;20065;-69
2022/10/06 12:28:32;;;;;;;6.28;2.03;;;;;;;;;;5055769;28;20075;-70
2022/10/06 12:31:11;;;;;;;10.43;1.85;;;;;;;;;;5055998;28;20072;-69
2022/10/06 12:33:41;;;;;;;9.85;1.92;;;;;;;;;;5054352;28;20116;-69
2022/10/06 12:36:22;;;;;;;10.68;2.83;;;;;;;;;;5055668;28;20557;-69
2022/10/06 12:39:03;;;;;;;7.57;2.20;;;;;;;;;;5054771;28;20716;-70
2022/10/06 12:41:49;;;;;;;5.22;1.70;;;;;;;;;;5054816;28;20097;-69
2022/10/06 12:44:26;;;;;;;6.50;1.67;;;;;;;;;;5055598;28;20049;-69
2022/10/06 12:46:54;;;;;;;5.70;1.70;;;;;;;;;;5070398;28;20060;-69
2022/10/06 12:49:35;;;;;;;4.78;2.33;;;;;;;;;;5054613;28;20100;-69
2022/10/06 12:52:12;;;;;;;4.90;1.53;;;;;;;;;;5055556;28;20045;-69
2022/10/06 12:54:45;;;;;;;6.35;1.55;;;;;;;;;;5055029;28;20045;-70
2022/10/06 12:57:18;;;;;;;6.45;2.13;;;;;;;;;;5063144;28;20132;-69
2022/10/06 12:59:45;;;;;;;8.50;1.77;;;;;;;;;;5055611;28;20882;-70
2022/10/06 13:02:19;;;;;;;7.20;1.77;;;;;;;;;;5068204;28;20056;-69
2022/10/06 13:04:47;;;;;;;11.18;2.45;;;;;;;;;;5063324;28;20522;-70
2022/10/06 13:07:19;;;;;;;4.38;1.48;;;;;;;;;;5072315;28;20044;-70
2022/10/06 13:09:46;;;;;;;4.33;1.67;;;;;;;;;;5056055;28;20056;-70
2022/10/06 13:12:31;;;;;;;6.97;2.35;;;;;;;;;;5056766;28;20260;-70
2022/10/06 13:15:17;;;;;;;5.30;1.88;;;;;;;;;;5071150;28;20546;-70
2022/10/06 13:17:54;;;;;;;4.72;2.33;;;;;;;;;;5070597;28;20132;-71
2022/10/06 13:20:23;;;;;;;5.10;1.73;;;;;;;;;;5057439;28;20686;-70
2022/10/06 13:23:00;;;;;;;15.32;3.90;;;;;;;;;;5055518;28;20045;-69
2022/10/06 13:25:33;;;;;;;5.22;1.70;;;;;;;;;;5055882;28;20053;-69
2022/10/06 13:28:24;;;;;;;7.63;1.70;;;;;;;;;;5053502;28;20173;-73
2022/10/06 13:31:06;;;;;;;9.05;1.75;;;;;;;;;;5078230;28;20045;-75
2022/10/06 13:33:34;;;;;;;8.65;2.45;;;;;;;;;;5058580;28;20045;-69
2022/10/06 13:36:01;;;;;;;5.57;1.70;;;;;;;;;;5059170;28;20041;-69
2022/10/06 13:38:33;;;;;;;3.72;1.83;;;;;;;;;;5059744;28;20117;-69
2022/10/06 13:40:59;;;;;;;;;;;;;;;;;;5076921;28;20049;-70
2022/10/06 13:43:25;;;;;;;3.63;1.17;;;;;;;;;;5060346;28;19921;-73
2022/10/06 13:45:52;;;;;;;4.35;1.67;;;;;;;;;;5059682;28;20454;-69
2022/10/06 13:48:20;;;;;;;8.18;1.63;;;;;;;;;;5075126;28;20175;-67
2022/10/06 13:50:48;;;;;;;6.50;1.27;;;;;;;;;;5058925;28;20555;-68
2022/10/06 13:53:22;;;;;;;7.10;1.20;;;;;;;;;;5076026;28;20036;-68
2022/10/06 13:55:49;;;;;;;3.83;1.58;;;;;;;;;;5059567;28;20322;-67
2022/10/06 13:58:21;;;;;;;4.28;1.23;;;;;;;;;;5059200;28;20041;-67
2022/10/06 14:00:48;;;;;;;5.15;1.98;;;;;;;;;;5056847;28;20060;-67
2022/10/06 14:03:20;;;;;;;7.97;1.55;;;;;;;;;;5074093;28;20053;-67
2022/10/06 14:05:46;;;;;;;3.20;1.38;;;;;;;;;;5059869;28;20044;-67
2022/10/06 14:08:12;;;;;;;6.93;1.98;;;;;;;;;;5073177;28;20523;-67
2022/10/06 14:10:45;;;;;;;4.70;1.30;;;;;;;;;;5059012;28;20602;-68
2022/10/06 14:13:30;;;;;;;6.25;1.92;;;;;;;;;;5059706;28;20380;-67
2022/10/06 14:16:01;;;;;;;5.43;1.88;;;;;;;;;;5057341;28;20041;-67
2022/10/06 14:18:36;;;;;;;4.88;1.33;;;;;;;;;;5059197;28;20060;-67
2022/10/06 14:21:21;;;;;;;4.40;1.40;;;;;;;;;;5058839;28;20964;-67
2022/10/06 14:23:52;;;;;;;6.40;1.55;;;;;;;;;;5064656;28;20489;-67
2022/10/06 14:26:20;;;;;;;5.28;1.13;;;;;;;;;;5056404;28;20053;-67
2022/10/06 14:28:51;;;;;;;5.07;1.73;;;;;;;;;;5074830;28;20045;-67
2022/10/06 14:31:17;;;;;;;6.32;1.60;;;;;;;;;;5071871;28;20053;-67
2022/10/06 14:33:45;;;;;;;6.03;1.55;;;;;;;;;;5065673;28;20076;-67
2022/10/06 14:36:14;;;;;;;11.15;1.77;;;;;;;;;;5057380;28;20037;-67
2022/10/06 14:38:40;;;;;;;8.70;1.58;;;;;;;;;;5057855;28;20527;-67
2022/10/06 14:41:07;;;;;;;5.57;1.92;;;;;;;;;;5072562;28;20140;-67
2022/10/06 14:43:33;;;;;;;4.35;1.20;;;;;;;;;;5073375;28;20055;-67
2022/10/06 14:46:00;;;;;;;3.38;1.10;;;;;;;;;;5072708;28;20056;-67
2022/10/06 14:48:27;;;;;;;5.55;1.67;;;;;;;;;;5075046;28;20064;-67
2022/10/06 14:50:53;;;;;;;3.90;1.42;;;;;;;;;;5058657;28;20056;-67
2022/10/06 14:53:20;;;;;;;3.53;1.55;;;;;;;;;;5058663;28;20124;-67
2022/10/06 14:55:46;;;;;;;4.38;1.10;;;;;;;;;;5058149;28;20142;-67
2022/10/06 14:58:12;;;;;;;4.10;1.25;;;;;;;;;;5073000;28;20053;-67
2022/10/06 15:00:41;;;;;;;3.13;1.13;;;;;;;;;;5057192;28;20045;-69
2022/10/06 15:03:07;;;;;;;7.13;1.65;;;;;;;;;;5056701;28;20068;-67
2022/10/06 15:05:33;;;;;;;2.90;1.08;;;;;;;;;;5054405;28;20041;-67
2022/10/06 15:08:09;;;;;;;4.55;1.92;;;;;;;;;;5054096;28;20045;-67
2022/10/06 15:10:37;;;;;;;7.80;1.17;;;;;;;;;;5072366;28;20052;-67
2022/10/06 15:13:05;;;;;;;5.22;1.88;;;;;;;;;;5072622;28;20116;-67
2022/10/06 15:15:32;;;;;;;3.28;1.30;;;;;;;;;;5066904;28;21332;-67
2022/10/06 15:17:59;;;;;;;8.25;2.47;;;;;;;;;;5053172;28;20122;-67
2022/10/06 15:20:26;;;;;;;10.70;2.45;;;;;;;;;;5064459;28;20048;-67
2022/10/06 15:22:52;;;;;;;3.47;0.93;;;;;;;;;;5058282;28;20053;-67
2022/10/06 15:31:01;;;;;;;4.25;1.70;;;;;;;;;;5056812;28;20045;-67
2022/10/06 15:33:29;;;;;;;6.10;1.63;;;;;;;;;;5072888;28;20076;-67
2022/10/06 15:36:15;;;;;;;4.25;1.38;;;;;;;;;;5055218;28;20079;-67
2022/10/06 15:38:41;;;;;;;4.05;1.50;;;;;;;;;;5058668;28;20553;-67
2022/10/06 15:41:07;;;;;;;5.55;1.55;;;;;;;;;;5054195;28;20195;-67
2022/10/06 15:46:18;;;;;;;3.47;1.33;;;;;;;;;;5053979;28;20515;-67